createdAt,value
2019-01-30T00:01:27.622Z,12.10
2019-01-30T00:03:57.186Z,11.45
2019-01-30T00:06:26.803Z,14.03
2019-01-30T00:08:56.281Z,10.70
2019-01-30T00:11:25.746Z,13.78
2019-01-30T00:13:55.242Z,13.18
2019-01-30T00:16:24.782Z,13.25
2019-01-30T00:18:54.266Z,19.40
2019-01-30T00:21:23.738Z,14.83
2019-01-30T00:23:53.205Z,14.93
2019-01-30T00:26:22.684Z,14.78
2019-01-30T00:28:52.162Z,18.15
2019-01-30T00:31:21.650Z,18.50
2019-01-30T00:33:51.133Z,21.65
2019-01-30T00:36:20.632Z,17.12
2019-01-30T00:38:50.134Z,21.80
2019-01-30T00:41:19.594Z,21.83
2019-01-30T00:43:49.077Z,25.53
2019-01-30T00:46:18.567Z,21.80
2019-01-30T00:48:48.048Z,23.50
2019-01-30T00:51:17.547Z,22.80
2019-01-30T00:53:47.011Z,23.95
2019-01-30T00:56:16.588Z,22.90
2019-01-30T00:58:46.079Z,25.12
2019-01-30T01:01:15.572Z,26.60
2019-01-30T01:03:45.042Z,27.52
2019-01-30T01:06:14.597Z,26.48
2019-01-30T01:08:44.142Z,26.73
2019-01-30T01:11:13.623Z,24.00
2019-01-30T01:13:43.096Z,19.73
2019-01-30T01:16:12.592Z,25.80
2019-01-30T01:18:42.074Z,25.60
2019-01-30T01:21:11.576Z,19.62
2019-01-30T01:23:41.053Z,22.87
2019-01-30T01:26:11.595Z,24.30
2019-01-30T01:28:41.081Z,24.98
2019-01-30T01:31:10.574Z,26.70
2019-01-30T01:33:40.057Z,23.00
2019-01-30T01:36:09.532Z,23.10
2019-01-30T01:38:39.024Z,24.45
2019-01-30T01:41:08.533Z,21.37
2019-01-30T01:43:38.023Z,21.55
2019-01-30T01:46:07.502Z,26.40
2019-01-30T01:48:36.971Z,22.85
2019-01-30T01:51:06.454Z,24.12
2019-01-30T01:53:35.923Z,24.30
2019-01-30T01:56:05.755Z,22.67
2019-01-30T01:58:35.249Z,22.67
2019-01-30T02:01:05.105Z,22.17
2019-01-30T02:03:34.578Z,21.85
2019-01-30T02:06:04.122Z,22.50
2019-01-30T02:08:33.603Z,26.57
2019-01-30T02:11:03.090Z,27.80
2019-01-30T02:13:32.587Z,24.25
2019-01-30T02:16:02.056Z,26.67
2019-01-30T02:18:31.549Z,21.43
2019-01-30T02:21:01.031Z,25.50
2019-01-30T02:23:30.521Z,27.60
2019-01-30T02:26:00.009Z,26.37
2019-01-30T02:28:29.482Z,26.52
2019-01-30T02:30:58.976Z,23.20
2019-01-30T02:33:28.474Z,25.77
2019-01-30T02:35:57.943Z,25.88
2019-01-30T02:38:27.423Z,27.25
2019-01-30T02:40:56.897Z,27.62
2019-01-30T02:43:26.387Z,22.90
2019-01-30T02:45:55.867Z,24.15
2019-01-30T02:48:25.350Z,19.60
2019-01-30T02:50:54.841Z,22.57
2019-01-30T02:53:24.320Z,17.87
2019-01-30T02:55:53.803Z,24.92
2019-01-30T02:58:23.293Z,18.05
2019-01-30T03:00:59.389Z,18.45
2019-01-30T03:03:23.950Z,20.33
2019-01-30T03:05:53.434Z,18.70
2019-01-30T03:08:22.930Z,18.60
2019-01-30T03:10:52.419Z,24.55
2019-01-30T03:13:21.901Z,23.80
2019-01-30T03:15:51.396Z,20.25
2019-01-30T03:18:20.882Z,21.93
2019-01-30T03:20:50.353Z,17.27
2019-01-30T03:23:19.830Z,20.02
2019-01-30T03:25:49.309Z,21.70
2019-01-30T03:28:18.915Z,20.45
2019-01-30T03:30:48.386Z,16.57
2019-01-30T03:33:17.869Z,18.83
2019-01-30T03:35:47.347Z,18.27
2019-01-30T03:38:16.845Z,19.50
2019-01-30T03:40:46.371Z,20.45
2019-01-30T03:43:15.851Z,19.92
2019-01-30T03:45:45.343Z,22.27
2019-01-30T03:48:14.827Z,18.32
2019-01-30T03:50:44.306Z,20.27
2019-01-30T03:53:13.782Z,22.05
2019-01-30T03:55:43.253Z,18.70
2019-01-30T03:58:12.733Z,21.80
2019-01-30T04:00:42.206Z,20.55
2019-01-30T04:03:11.705Z,17.65
2019-01-30T04:05:41.201Z,18.27
2019-01-30T04:08:10.673Z,23.50
2019-01-30T04:10:40.177Z,19.98
2019-01-30T04:13:09.649Z,18.50
2019-01-30T04:15:39.133Z,18.50
2019-01-30T04:18:08.612Z,19.10
2019-01-30T04:20:38.173Z,21.57
2019-01-30T04:23:07.877Z,18.12
2019-01-30T04:25:37.404Z,15.60
2019-01-30T04:28:06.902Z,16.00
2019-01-30T04:30:36.382Z,24.40
2019-01-30T04:33:05.858Z,42.23
2019-01-30T04:35:35.346Z,34.83
2019-01-30T04:38:05.086Z,19.00
2019-01-30T04:40:34.601Z,19.30
2019-01-30T04:43:04.179Z,21.87
2019-01-30T04:45:33.669Z,18.75
2019-01-30T04:48:03.199Z,14.40
2019-01-30T04:50:32.703Z,14.43
2019-01-30T04:53:02.269Z,17.07
2019-01-30T04:55:31.748Z,14.47
2019-01-30T04:58:01.220Z,12.67
2019-01-30T05:00:30.698Z,13.65
2019-01-30T05:03:00.273Z,15.08
2019-01-30T05:05:29.766Z,15.70
2019-01-30T05:07:59.246Z,15.73
2019-01-30T05:10:28.847Z,17.65
2019-01-30T05:12:58.398Z,20.67
2019-01-30T05:15:27.935Z,14.23
2019-01-30T05:17:57.452Z,18.73
2019-01-30T05:20:26.883Z,15.50
2019-01-30T05:22:56.431Z,19.00
2019-01-30T05:25:25.954Z,14.97
2019-01-30T05:27:55.445Z,20.25
2019-01-30T05:30:27.611Z,18.00
2019-01-30T05:32:58.282Z,14.50
2019-01-30T05:35:27.779Z,14.80
2019-01-30T05:37:57.422Z,16.93
2019-01-30T05:40:26.993Z,12.73
2019-01-30T05:42:56.590Z,12.28
2019-01-30T05:45:26.078Z,14.38
2019-01-30T05:47:55.624Z,16.40
2019-01-30T05:50:25.177Z,18.83
2019-01-30T05:52:54.705Z,15.13
2019-01-30T05:55:24.258Z,16.23
2019-01-30T05:57:54.729Z,17.37
2019-01-30T06:00:28.980Z,12.73
2019-01-30T06:02:58.566Z,11.48
2019-01-30T06:05:28.047Z,13.53
2019-01-30T06:07:57.524Z,12.70
2019-01-30T06:10:27.158Z,11.35
2019-01-30T06:12:56.685Z,16.57
2019-01-30T06:15:26.181Z,12.82
2019-01-30T06:17:55.660Z,13.93
2019-01-30T06:20:26.432Z,14.93
2019-01-30T06:22:57.504Z,13.87
2019-01-30T06:25:26.967Z,12.33
2019-01-30T06:27:57.400Z,13.53
2019-01-30T06:30:27.346Z,13.80
2019-01-30T06:32:56.837Z,17.13
2019-01-30T06:35:26.383Z,14.20
2019-01-30T06:37:56.880Z,20.15
2019-01-30T06:40:32.150Z,20.63
2019-01-30T06:43:02.780Z,15.80
2019-01-30T06:45:32.691Z,22.30
2019-01-30T06:48:02.191Z,21.68
2019-01-30T06:50:31.691Z,21.95
2019-01-30T06:53:01.364Z,17.15
2019-01-30T06:55:30.831Z,18.32
2019-01-30T06:58:00.310Z,20.17
2019-01-30T07:00:29.862Z,23.83
2019-01-30T07:02:59.444Z,19.87
2019-01-30T07:05:28.976Z,22.60
2019-01-30T07:07:58.505Z,19.75
2019-01-30T07:10:28.688Z,18.42
2019-01-30T07:12:58.164Z,21.83
2019-01-30T07:15:27.717Z,16.40
2019-01-30T07:17:57.205Z,19.67
2019-01-30T07:20:26.772Z,16.97
2019-01-30T07:22:56.342Z,17.80
2019-01-30T07:25:25.887Z,22.97
2019-01-30T07:27:55.379Z,23.98
2019-01-30T07:30:30.466Z,21.57
2019-01-30T07:33:00.064Z,20.10
2019-01-30T07:35:29.592Z,22.27
2019-01-30T07:37:59.199Z,20.30
2019-01-30T07:40:29.070Z,21.63
2019-01-30T07:42:58.726Z,19.07
2019-01-30T07:45:29.112Z,21.63
2019-01-30T07:47:58.608Z,23.83
2019-01-30T07:50:28.270Z,20.50
2019-01-30T07:52:58.922Z,19.17
2019-01-30T07:55:28.678Z,20.85
2019-01-30T07:57:58.214Z,23.17
2019-01-30T08:00:30.249Z,20.53
2019-01-30T08:02:59.829Z,18.55
2019-01-30T08:05:29.388Z,19.85
2019-01-30T08:07:58.933Z,24.20
2019-01-30T08:10:28.495Z,23.30
2019-01-30T08:12:58.012Z,17.85
2019-01-30T08:15:27.581Z,24.63
2019-01-30T08:17:57.077Z,20.57
2019-01-30T08:20:26.829Z,19.45
2019-01-30T08:22:56.495Z,19.92
2019-01-30T08:25:26.298Z,20.30
2019-01-30T08:27:56.270Z,24.80
2019-01-30T08:30:27.999Z,26.15
2019-01-30T08:33:04.601Z,26.73
2019-01-30T08:35:31.814Z,24.12
2019-01-30T08:38:02.413Z,22.60
2019-01-30T08:40:31.972Z,27.40
2019-01-30T08:43:01.456Z,24.00
2019-01-30T08:45:31.808Z,25.52
2019-01-30T08:48:01.565Z,25.40
2019-01-30T08:50:31.629Z,27.40
2019-01-30T08:53:01.168Z,33.73
2019-01-30T08:55:30.672Z,27.02
2019-01-30T08:58:00.235Z,34.05
2019-01-30T09:00:30.289Z,27.03
2019-01-30T09:02:59.771Z,29.87
2019-01-30T09:05:29.319Z,29.05
2019-01-30T09:07:58.876Z,30.20
2019-01-30T09:10:28.659Z,24.00
2019-01-30T09:12:58.152Z,27.13
2019-01-30T09:15:28.357Z,26.10
2019-01-30T09:17:58.002Z,26.73
2019-01-30T09:20:27.691Z,30.70
2019-01-30T09:22:57.264Z,32.05
2019-01-30T09:25:28.504Z,31.90
2019-01-30T09:27:58.928Z,26.97
2019-01-30T09:30:33.769Z,26.80
2019-01-30T09:33:03.340Z,25.90
2019-01-30T09:35:32.898Z,27.50
2019-01-30T09:38:02.396Z,28.17
2019-01-30T09:40:31.869Z,27.93
2019-01-30T09:43:01.574Z,26.54
2019-01-30T09:45:31.055Z,26.57
2019-01-30T09:48:00.607Z,26.43
2019-01-30T09:50:30.079Z,24.90
2019-01-30T09:52:59.773Z,29.52
2019-01-30T09:55:29.260Z,26.70
2019-01-30T09:57:58.755Z,31.30
2019-01-30T10:00:33.004Z,24.87
2019-01-30T10:03:02.511Z,23.50
2019-01-30T10:05:32.007Z,26.50
2019-01-30T10:08:09.657Z,25.80
2019-01-30T10:10:40.672Z,25.90
2019-01-30T10:13:11.030Z,26.20
2019-01-30T10:15:42.705Z,22.97
2019-01-30T10:18:13.437Z,24.93
2019-01-30T10:20:44.858Z,23.57
2019-01-30T10:23:14.526Z,24.73
2019-01-30T10:25:44.096Z,25.35
2019-01-30T10:28:16.815Z,27.05
2019-01-30T10:30:45.752Z,22.03
2019-01-30T10:33:15.262Z,23.25
2019-01-30T10:35:50.760Z,26.35
2019-01-30T10:38:20.207Z,22.75
2019-01-30T10:40:49.691Z,24.40
2019-01-30T10:43:19.245Z,23.27
2019-01-30T10:45:48.740Z,23.00
2019-01-30T10:48:18.227Z,25.90
2019-01-30T10:50:47.806Z,24.17
2019-01-30T10:53:17.355Z,21.20
2019-01-30T10:55:46.939Z,20.97
2019-01-30T10:58:17.879Z,22.20
2019-01-30T11:00:49.746Z,20.10
2019-01-30T11:03:19.868Z,20.77
2019-01-30T11:05:49.428Z,23.30
2019-01-30T11:08:19.029Z,23.10
2019-01-30T11:10:50.754Z,20.07
2019-01-30T11:13:19.910Z,17.13
2019-01-30T11:15:49.385Z,19.67
2019-01-30T11:18:19.263Z,17.20
2019-01-30T11:20:48.949Z,18.98
2019-01-30T11:23:18.554Z,20.30
2019-01-30T11:25:49.377Z,16.70
2019-01-30T11:28:18.904Z,17.87
2019-01-30T11:30:48.510Z,16.25
2019-01-30T11:33:18.066Z,19.57
2019-01-30T11:35:47.568Z,18.92
2019-01-30T11:38:17.122Z,18.27
2019-01-30T11:40:46.707Z,17.07
2019-01-30T11:43:17.180Z,16.75
2019-01-30T11:45:46.757Z,15.03
2019-01-30T11:48:16.288Z,14.73
2019-01-30T11:50:45.832Z,14.10
2019-01-30T11:53:15.425Z,12.73
2019-01-30T11:55:45.001Z,16.27
2019-01-30T11:58:14.619Z,14.45
2019-01-30T12:01:03.658Z,14.25
2019-01-30T12:03:33.266Z,16.67
2019-01-30T12:06:03.080Z,14.63
2019-01-30T12:08:32.684Z,18.03
2019-01-30T12:11:03.312Z,15.70
2019-01-30T12:13:32.797Z,19.77
2019-01-30T12:16:02.268Z,24.20
2019-01-30T12:18:31.960Z,29.07
2019-01-30T12:21:01.481Z,19.90
2019-01-30T12:23:31.300Z,15.35
2019-01-30T12:26:00.880Z,15.10
2019-01-30T12:28:30.455Z,13.90
2019-01-30T12:30:59.946Z,15.23
2019-01-30T12:33:29.449Z,17.55
2019-01-30T12:35:59.033Z,15.50
2019-01-30T12:38:28.616Z,21.65
2019-01-30T12:40:58.120Z,19.25
2019-01-30T12:43:27.609Z,15.30
2019-01-30T12:45:57.131Z,15.27
2019-01-30T12:48:26.634Z,12.50
2019-01-30T12:50:56.174Z,14.60
2019-01-30T12:53:25.750Z,17.10
2019-01-30T12:55:55.251Z,14.90
2019-01-30T12:58:25.485Z,15.85
2019-01-30T13:00:55.072Z,16.75
2019-01-30T13:03:24.588Z,16.10
2019-01-30T13:05:54.115Z,20.57
2019-01-30T13:08:23.607Z,14.60
2019-01-30T13:10:53.226Z,16.67
2019-01-30T13:13:22.864Z,16.12
2019-01-30T13:15:52.438Z,16.70
2019-01-30T13:18:22.033Z,18.27
2019-01-30T13:20:51.555Z,16.75
2019-01-30T13:23:21.152Z,20.60
2019-01-30T13:25:50.655Z,20.13
2019-01-30T13:28:21.046Z,21.70
2019-01-30T13:30:50.560Z,27.75
2019-01-30T13:33:20.130Z,30.33
2019-01-30T13:35:49.699Z,18.55
2019-01-30T13:38:19.310Z,21.57
2019-01-30T13:40:50.929Z,18.40
2019-01-30T13:43:20.448Z,22.30
2019-01-30T13:45:49.940Z,26.60
2019-01-30T13:48:20.577Z,19.60
2019-01-30T13:50:50.154Z,19.40
2019-01-30T13:53:19.727Z,22.63
2019-01-30T13:55:50.260Z,23.35
2019-01-30T13:58:20.794Z,24.30
2019-01-30T14:00:50.916Z,22.73
2019-01-30T14:03:20.487Z,24.73
2019-01-30T14:05:51.082Z,23.07
2019-01-30T14:08:20.740Z,21.37
2019-01-30T14:10:51.393Z,25.80
2019-01-30T14:13:20.872Z,27.53
2019-01-30T14:15:50.426Z,25.67
2019-01-30T14:18:21.621Z,27.90
2019-01-30T14:20:51.179Z,24.80
2019-01-30T14:23:20.818Z,21.30
2019-01-30T14:25:50.373Z,23.83
2019-01-30T14:28:19.978Z,21.90
2019-01-30T14:30:50.012Z,22.52
2019-01-30T14:33:19.691Z,21.83
2019-01-30T14:35:49.477Z,25.43
2019-01-30T14:38:18.988Z,23.07
2019-01-30T14:40:48.619Z,22.25
2019-01-30T14:43:18.718Z,23.87
2019-01-30T14:45:48.396Z,23.83
2019-01-30T14:48:17.971Z,28.00
2019-01-30T14:50:47.425Z,23.50
2019-01-30T14:53:17.125Z,29.05
2019-01-30T14:55:46.769Z,26.85
2019-01-30T14:58:19.376Z,29.00
2019-01-30T15:00:49.096Z,26.77
2019-01-30T15:03:18.751Z,29.55
2019-01-30T15:05:48.266Z,31.67
2019-01-30T15:08:17.824Z,31.82
2019-01-30T15:10:47.421Z,26.65
2019-01-30T15:13:16.917Z,29.00
2019-01-30T15:15:46.400Z,28.40
2019-01-30T15:18:15.920Z,25.35
2019-01-30T15:20:45.550Z,18.48
2019-01-30T15:23:15.125Z,19.63
2019-01-30T15:25:44.705Z,20.67
2019-01-30T15:28:14.229Z,19.37
2019-01-30T15:30:46.088Z,21.27
2019-01-30T15:33:15.645Z,14.73
2019-01-30T15:35:45.527Z,15.83
2019-01-30T15:38:17.036Z,17.43
2019-01-30T15:40:46.677Z,14.80
2019-01-30T15:43:16.301Z,16.00
2019-01-30T15:45:45.868Z,15.60
2019-01-30T15:48:15.477Z,14.50
2019-01-30T15:50:44.970Z,16.62
2019-01-30T15:53:20.118Z,14.30
2019-01-30T15:55:50.028Z,17.25
2019-01-30T15:58:19.566Z,19.57
2019-01-30T16:00:52.237Z,16.75
2019-01-30T16:03:21.731Z,18.50
2019-01-30T16:05:51.315Z,17.75
2019-01-30T16:08:20.856Z,18.92
2019-01-30T16:10:50.369Z,17.70
2019-01-30T16:13:19.966Z,16.93
2019-01-30T16:15:53.850Z,20.83
2019-01-30T16:18:23.365Z,20.82
2019-01-30T16:20:53.861Z,21.07
2019-01-30T16:23:24.079Z,16.85
2019-01-30T16:25:54.040Z,16.37
2019-01-30T16:28:24.041Z,16.37
2019-01-30T16:30:54.203Z,14.20
2019-01-30T16:33:24.228Z,13.93
2019-01-30T16:35:56.068Z,17.30
2019-01-30T16:38:27.390Z,17.13
2019-01-30T16:40:57.449Z,15.28
2019-01-30T16:43:27.564Z,14.17
2019-01-30T16:45:58.205Z,16.53
2019-01-30T16:48:30.893Z,19.52
2019-01-30T16:50:59.628Z,30.77
2019-01-30T16:53:29.771Z,24.35
2019-01-30T16:55:59.485Z,19.07
2019-01-30T16:58:28.978Z,15.40
2019-01-30T17:00:58.457Z,19.40
2019-01-30T17:03:27.942Z,19.40
2019-01-30T17:06:07.192Z,20.45
2019-01-30T17:08:29.784Z,18.15
2019-01-30T17:10:59.379Z,19.63
2019-01-30T17:13:28.900Z,16.47
2019-01-30T17:15:58.476Z,21.37
2019-01-30T17:18:27.976Z,15.30
2019-01-30T17:20:57.472Z,17.05
2019-01-30T17:23:27.087Z,18.90
2019-01-30T17:25:56.645Z,23.76
2019-01-30T17:28:26.136Z,25.35
2019-01-30T17:31:09.010Z,22.25
2019-01-30T17:33:38.508Z,146.70
2019-01-30T17:36:17.960Z,60.23
2019-01-30T17:38:39.275Z,33.88
2019-01-30T17:41:08.766Z,20.20
2019-01-30T17:43:38.412Z,20.67
2019-01-30T17:46:08.023Z,18.43
2019-01-30T17:48:37.513Z,18.63
2019-01-30T17:51:07.021Z,24.07
2019-01-30T17:53:37.608Z,18.95
2019-01-30T17:56:07.149Z,22.13
2019-01-30T17:58:36.666Z,20.50
2019-01-30T18:01:06.199Z,20.05
2019-01-30T18:03:35.769Z,18.97
2019-01-30T18:06:05.359Z,14.90
2019-01-30T18:08:34.850Z,17.70
2019-01-30T18:11:04.816Z,25.43
2019-01-30T18:13:34.298Z,20.23
2019-01-30T18:16:05.217Z,24.50
2019-01-30T18:18:34.798Z,26.93
2019-01-30T18:21:04.361Z,26.73
2019-01-30T18:23:33.971Z,18.17
2019-01-30T18:26:03.839Z,16.90
2019-01-30T18:28:33.325Z,20.72
2019-01-30T18:31:02.890Z,19.43
2019-01-30T18:33:32.394Z,19.60
2019-01-30T18:36:01.894Z,19.20
2019-01-30T18:38:31.418Z,18.98
2019-01-30T18:41:00.934Z,19.63
2019-01-30T18:43:30.530Z,19.10
2019-01-30T18:46:00.203Z,16.37
2019-01-30T18:48:31.141Z,17.45
2019-01-30T18:51:07.780Z,18.65
2019-01-30T18:53:38.664Z,17.43
2019-01-30T18:56:08.728Z,24.50
2019-01-30T18:58:39.126Z,24.57
2019-01-30T19:01:08.941Z,21.07
2019-01-30T19:03:41.122Z,18.07
2019-01-30T19:06:11.357Z,21.85
2019-01-30T19:08:42.730Z,21.25
2019-01-30T19:11:15.177Z,25.50
2019-01-30T19:13:44.823Z,33.47
2019-01-30T19:16:16.031Z,36.63
2019-01-30T19:18:45.498Z,26.68
2019-01-30T19:21:17.042Z,19.40
2019-01-30T19:23:50.772Z,20.60
2019-01-30T19:26:20.782Z,17.57
2019-01-30T19:28:50.524Z,24.87
2019-01-30T19:31:20.261Z,27.70
2019-01-30T19:33:52.396Z,30.88
2019-01-30T19:36:22.084Z,24.83
2019-01-30T19:38:52.523Z,17.95
2019-01-30T19:41:22.232Z,25.20
2019-01-30T19:43:53.533Z,21.40
2019-01-30T19:46:23.208Z,20.15
2019-01-30T19:48:53.774Z,22.80
2019-01-30T19:51:23.272Z,21.50
2019-01-30T19:53:52.784Z,23.12
2019-01-30T19:56:22.275Z,22.32
2019-01-30T19:58:51.777Z,21.07
2019-01-30T20:01:21.333Z,25.87
2019-01-30T20:03:50.837Z,19.97
2019-01-30T20:06:20.341Z,20.30
2019-01-30T20:08:49.935Z,20.15
2019-01-30T20:11:19.464Z,18.85
2019-01-30T20:13:49.069Z,23.00
2019-01-30T20:16:18.736Z,23.83
2019-01-30T20:18:48.252Z,17.73
2019-01-30T20:21:17.778Z,20.20
2019-01-30T20:23:47.496Z,17.62
2019-01-30T20:26:17.001Z,17.90
2019-01-30T20:28:46.492Z,17.10
2019-01-30T20:31:16.000Z,19.57
2019-01-30T20:33:45.506Z,17.25
2019-01-30T20:36:15.004Z,20.77
2019-01-30T20:38:44.670Z,22.10
2019-01-30T20:41:14.372Z,20.57
2019-01-30T20:43:43.865Z,23.32
2019-01-30T20:46:13.345Z,22.37
2019-01-30T20:48:46.976Z,21.30
2019-01-30T20:51:14.067Z,20.55
2019-01-30T20:53:43.609Z,21.33
2019-01-30T20:56:13.201Z,19.35
2019-01-30T20:58:42.691Z,21.03
2019-01-30T21:01:12.226Z,23.22
2019-01-30T21:03:41.733Z,19.50
2019-01-30T21:06:11.245Z,20.30
2019-01-30T21:08:41.760Z,21.80
2019-01-30T21:11:12.342Z,20.77
2019-01-30T21:13:41.886Z,24.57
2019-01-30T21:16:12.358Z,21.73
2019-01-30T21:18:41.947Z,22.42
2019-01-30T21:21:11.450Z,21.65
2019-01-30T21:23:41.081Z,23.07
2019-01-30T21:26:10.534Z,24.93
2019-01-30T21:28:40.025Z,22.33
2019-01-30T21:31:09.517Z,24.23
2019-01-30T21:33:39.069Z,24.87
2019-01-30T21:36:08.560Z,26.17
2019-01-30T21:38:38.077Z,28.80
2019-01-30T21:41:07.649Z,29.73
2019-01-30T21:43:38.121Z,29.92
2019-01-30T21:46:08.583Z,32.25
2019-01-30T21:48:38.091Z,28.20
2019-01-30T21:51:07.577Z,32.25
2019-01-30T21:53:37.152Z,32.55
2019-01-30T21:56:09.767Z,35.37
2019-01-30T21:58:37.991Z,35.05
2019-01-30T22:01:07.513Z,33.40
2019-01-30T22:03:37.048Z,35.43
2019-01-30T22:06:06.634Z,42.20
2019-01-30T22:08:36.130Z,43.67
2019-01-30T22:11:05.784Z,45.45
2019-01-30T22:13:35.361Z,43.80
2019-01-30T22:16:05.235Z,46.00
2019-01-30T22:18:34.801Z,44.15
2019-01-30T22:21:04.316Z,44.93
2019-01-30T22:23:33.887Z,44.17
2019-01-30T22:26:03.460Z,45.30
2019-01-30T22:28:32.957Z,42.57
2019-01-30T22:31:02.614Z,41.50
2019-01-30T22:33:32.913Z,40.35
2019-01-30T22:36:02.406Z,42.40
2019-01-30T22:38:31.903Z,43.17
2019-01-30T22:41:01.388Z,38.00
2019-01-30T22:43:30.882Z,40.48
2019-01-30T22:46:00.371Z,39.43
2019-01-30T22:48:29.889Z,39.63
2019-01-30T22:50:59.378Z,40.70
2019-01-30T22:53:28.867Z,38.35
2019-01-30T22:55:58.354Z,39.33
2019-01-30T22:58:27.846Z,36.98
2019-01-30T23:01:30.021Z,37.13
2019-01-30T23:04:34.962Z,39.60
2019-01-30T23:07:18.377Z,36.55
2019-01-30T23:10:32.547Z,39.10
2019-01-30T23:13:20.165Z,38.95
2019-01-30T23:15:55.507Z,38.10
2019-01-30T23:18:55.432Z,39.20
2019-01-30T23:21:29.837Z,41.28
2019-01-30T23:24:39.675Z,41.80
2019-01-30T23:27:42.809Z,40.60
2019-01-30T23:30:59.611Z,42.85
2019-01-30T23:34:02.483Z,42.90
2019-01-30T23:37:00.527Z,41.02
2019-01-30T23:39:45.435Z,43.10
2019-01-30T23:42:27.635Z,43.20
2019-01-30T23:45:50.736Z,41.80
2019-01-30T23:48:50.927Z,42.00
2019-01-30T23:51:55.189Z,41.80
2019-01-30T23:55:13.327Z,44.10
2019-01-30T23:58:31.233Z,45.80
